sensor_id;sensor_type;location;lat;lon;timestamp;temperature;humidity
48535;DHT22;34323;52.022;5.686;2023-05-29T00:01:07;18.50;99.90
48535;DHT22;34323;52.022;5.686;2023-05-29T00:03:34;18.40;99.90
48535;DHT22;34323;52.022;5.686;2023-05-29T00:06:02;18.30;99.90
48535;DHT22;34323;52.022;5.686;2023-05-29T00:08:28;18.20;99.90
48535;DHT22;34323;52.022;5.686;2023-05-29T00:10:54;18.30;99.90
48535;DHT22;34323;52.022;5.686;2023-05-29T00:13:19;18.30;99.90
48535;DHT22;34323;52.022;5.686;2023-05-29T00:15:46;18.30;99.90
48535;DHT22;34323;52.022;5.686;2023-05-29T00:18:11;18.30;99.90
48535;DHT22;34323;52.022;5.686;2023-05-29T00:20:37;18.10;99.90
48535;DHT22;34323;52.022;5.686;2023-05-29T00:23:03;17.90;99.90
48535;DHT22;34323;52.022;5.686;2023-05-29T00:25:31;18.00;99.90
48535;DHT22;34323;52.022;5.686;2023-05-29T00:27:57;17.90;99.90
48535;DHT22;34323;52.022;5.686;2023-05-29T00:30:22;17.90;99.90
48535;DHT22;34323;52.022;5.686;2023-05-29T00:32:48;18.00;99.90
48535;DHT22;34323;52.022;5.686;2023-05-29T00:35:13;18.00;99.90
48535;DHT22;34323;52.022;5.686;2023-05-29T00:37:39;18.10;99.90
48535;DHT22;34323;52.022;5.686;2023-05-29T00:40:05;17.90;99.90
48535;DHT22;34323;52.022;5.686;2023-05-29T00:42:31;17.90;99.90
48535;DHT22;34323;52.022;5.686;2023-05-29T00:44:57;17.80;99.90
48535;DHT22;34323;52.022;5.686;2023-05-29T00:47:23;17.70;99.90
48535;DHT22;34323;52.022;5.686;2023-05-29T00:49:49;17.60;99.90
48535;DHT22;34323;52.022;5.686;2023-05-29T00:52:17;17.40;99.90
48535;DHT22;34323;52.022;5.686;2023-05-29T00:54:44;17.40;99.90
48535;DHT22;34323;52.022;5.686;2023-05-29T00:57:12;17.50;99.90
48535;DHT22;34323;52.022;5.686;2023-05-29T00:59:39;17.60;99.90
48535;DHT22;34323;52.022;5.686;2023-05-29T01:02:05;17.70;99.90
48535;DHT22;34323;52.022;5.686;2023-05-29T01:04:31;17.80;99.90
48535;DHT22;34323;52.022;5.686;2023-05-29T01:07:00;17.90;99.90
48535;DHT22;34323;52.022;5.686;2023-05-29T01:09:28;17.90;99.90
48535;DHT22;34323;52.022;5.686;2023-05-29T01:14:55;17.80;99.90
48535;DHT22;34323;52.022;5.686;2023-05-29T01:17:32;17.80;99.90
48535;DHT22;34323;52.022;5.686;2023-05-29T01:23:07;17.30;99.90
48535;DHT22;34323;52.022;5.686;2023-05-29T01:25:56;17.30;99.90
48535;DHT22;34323;52.022;5.686;2023-05-29T01:28:26;17.40;99.90
48535;DHT22;34323;52.022;5.686;2023-05-29T01:30:54;17.10;99.90
48535;DHT22;34323;52.022;5.686;2023-05-29T01:33:20;17.30;99.90
48535;DHT22;34323;52.022;5.686;2023-05-29T01:35:46;17.30;99.90
48535;DHT22;34323;52.022;5.686;2023-05-29T01:38:11;17.30;99.90
48535;DHT22;34323;52.022;5.686;2023-05-29T01:40:37;17.30;99.90
48535;DHT22;34323;52.022;5.686;2023-05-29T01:43:03;17.30;99.90
48535;DHT22;34323;52.022;5.686;2023-05-29T01:45:29;17.30;99.90
48535;DHT22;34323;52.022;5.686;2023-05-29T01:47:56;17.30;99.90
48535;DHT22;34323;52.022;5.686;2023-05-29T01:50:22;17.50;99.90
48535;DHT22;34323;52.022;5.686;2023-05-29T01:52:48;17.60;99.90
48535;DHT22;34323;52.022;5.686;2023-05-29T01:55:14;17.60;99.90
48535;DHT22;34323;52.022;5.686;2023-05-29T01:57:41;17.60;99.90
48535;DHT22;34323;52.022;5.686;2023-05-29T02:00:09;17.50;99.90
48535;DHT22;34323;52.022;5.686;2023-05-29T02:02:37;17.50;99.90
48535;DHT22;34323;52.022;5.686;2023-05-29T02:05:04;17.60;99.90
48535;DHT22;34323;52.022;5.686;2023-05-29T02:07:30;17.70;99.90
48535;DHT22;34323;52.022;5.686;2023-05-29T02:09:55;17.60;99.90
48535;DHT22;34323;52.022;5.686;2023-05-29T02:12:21;17.60;99.90
48535;DHT22;34323;52.022;5.686;2023-05-29T02:14:47;17.50;99.90
48535;DHT22;34323;52.022;5.686;2023-05-29T02:17:12;17.40;99.90
48535;DHT22;34323;52.022;5.686;2023-05-29T02:19:38;17.30;99.90
48535;DHT22;34323;52.022;5.686;2023-05-29T02:22:03;17.20;99.90
48535;DHT22;34323;52.022;5.686;2023-05-29T02:24:29;17.10;99.90
48535;DHT22;34323;52.022;5.686;2023-05-29T02:26:55;16.90;99.90
48535;DHT22;34323;52.022;5.686;2023-05-29T02:29:21;16.70;99.90
48535;DHT22;34323;52.022;5.686;2023-05-29T02:31:46;16.70;99.90
48535;DHT22;34323;52.022;5.686;2023-05-29T02:34:12;16.70;99.90
48535;DHT22;34323;52.022;5.686;2023-05-29T02:36:37;16.80;99.90
48535;DHT22;34323;52.022;5.686;2023-05-29T02:39:04;16.70;99.90
48535;DHT22;34323;52.022;5.686;2023-05-29T02:41:30;16.90;99.90
48535;DHT22;34323;52.022;5.686;2023-05-29T02:43:56;17.00;99.90
48535;DHT22;34323;52.022;5.686;2023-05-29T02:46:21;17.00;99.90
48535;DHT22;34323;52.022;5.686;2023-05-29T02:48:47;16.90;99.90
48535;DHT22;34323;52.022;5.686;2023-05-29T02:51:13;16.90;99.90
48535;DHT22;34323;52.022;5.686;2023-05-29T02:53:38;16.90;99.90
48535;DHT22;34323;52.022;5.686;2023-05-29T02:56:05;16.90;99.90
48535;DHT22;34323;52.022;5.686;2023-05-29T02:58:31;16.90;99.90
48535;DHT22;34323;52.022;5.686;2023-05-29T03:00:58;16.70;99.90
48535;DHT22;34323;52.022;5.686;2023-05-29T03:03:23;16.80;99.90
48535;DHT22;34323;52.022;5.686;2023-05-29T03:05:49;16.80;99.90
48535;DHT22;34323;52.022;5.686;2023-05-29T03:08:14;16.70;99.90
48535;DHT22;34323;52.022;5.686;2023-05-29T03:10:40;16.70;99.90
48535;DHT22;34323;52.022;5.686;2023-05-29T03:13:06;16.80;99.90
48535;DHT22;34323;52.022;5.686;2023-05-29T03:15:32;16.80;99.90
48535;DHT22;34323;52.022;5.686;2023-05-29T03:17:57;16.80;99.90
48535;DHT22;34323;52.022;5.686;2023-05-29T03:20:23;16.60;99.90
48535;DHT22;34323;52.022;5.686;2023-05-29T03:22:49;16.50;99.90
48535;DHT22;34323;52.022;5.686;2023-05-29T03:25:15;16.40;99.90
48535;DHT22;34323;52.022;5.686;2023-05-29T03:27:41;16.40;99.90
48535;DHT22;34323;52.022;5.686;2023-05-29T03:30:07;16.40;99.90
48535;DHT22;34323;52.022;5.686;2023-05-29T03:32:33;16.40;99.90
48535;DHT22;34323;52.022;5.686;2023-05-29T03:34:58;16.40;99.90
48535;DHT22;34323;52.022;5.686;2023-05-29T03:37:24;16.10;99.90
48535;DHT22;34323;52.022;5.686;2023-05-29T03:39:49;16.20;99.90
48535;DHT22;34323;52.022;5.686;2023-05-29T03:42:15;16.30;99.90
48535;DHT22;34323;52.022;5.686;2023-05-29T03:44:41;16.40;99.90
48535;DHT22;34323;52.022;5.686;2023-05-29T03:47:07;16.50;99.90
48535;DHT22;34323;52.022;5.686;2023-05-29T03:49:34;16.30;99.90
48535;DHT22;34323;52.022;5.686;2023-05-29T03:52:00;16.40;99.90
48535;DHT22;34323;52.022;5.686;2023-05-29T03:54:25;16.40;99.90
48535;DHT22;34323;52.022;5.686;2023-05-29T03:56:51;16.50;99.90
48535;DHT22;34323;52.022;5.686;2023-05-29T03:59:16;16.40;99.90
48535;DHT22;34323;52.022;5.686;2023-05-29T04:01:42;16.40;99.90
48535;DHT22;34323;52.022;5.686;2023-05-29T04:04:08;16.30;99.90
48535;DHT22;34323;52.022;5.686;2023-05-29T04:06:33;16.10;99.90
48535;DHT22;34323;52.022;5.686;2023-05-29T04:09:04;16.00;99.90
48535;DHT22;34323;52.022;5.686;2023-05-29T04:11:32;16.00;99.90
48535;DHT22;34323;52.022;5.686;2023-05-29T04:14:00;16.10;99.90
48535;DHT22;34323;52.022;5.686;2023-05-29T04:16:26;16.10;99.90
48535;DHT22;34323;52.022;5.686;2023-05-29T04:18:52;16.10;99.90
48535;DHT22;34323;52.022;5.686;2023-05-29T04:21:18;16.20;99.90
48535;DHT22;34323;52.022;5.686;2023-05-29T04:23:43;16.10;99.90
48535;DHT22;34323;52.022;5.686;2023-05-29T04:26:09;16.00;99.90
48535;DHT22;34323;52.022;5.686;2023-05-29T04:28:35;16.10;99.90
48535;DHT22;34323;52.022;5.686;2023-05-29T04:31:02;16.20;99.90
48535;DHT22;34323;52.022;5.686;2023-05-29T04:33:28;16.30;99.90
48535;DHT22;34323;52.022;5.686;2023-05-29T04:35:54;16.20;99.90
48535;DHT22;34323;52.022;5.686;2023-05-29T04:38:20;16.30;99.90
48535;DHT22;34323;52.022;5.686;2023-05-29T04:40:50;16.40;99.90
48535;DHT22;34323;52.022;5.686;2023-05-29T04:43:16;16.30;99.90
48535;DHT22;34323;52.022;5.686;2023-05-29T04:45:41;16.30;99.90
48535;DHT22;34323;52.022;5.686;2023-05-29T04:48:08;16.10;99.90
48535;DHT22;34323;52.022;5.686;2023-05-29T04:50:34;16.10;99.90
48535;DHT22;34323;52.022;5.686;2023-05-29T04:53:00;16.00;99.90
48535;DHT22;34323;52.022;5.686;2023-05-29T04:55:26;15.90;99.90
48535;DHT22;34323;52.022;5.686;2023-05-29T04:57:53;15.80;99.90
48535;DHT22;34323;52.022;5.686;2023-05-29T05:00:19;15.70;99.90
48535;DHT22;34323;52.022;5.686;2023-05-29T05:02:45;15.80;99.90
48535;DHT22;34323;52.022;5.686;2023-05-29T05:05:11;15.90;99.90
48535;DHT22;34323;52.022;5.686;2023-05-29T05:07:37;15.90;99.90
48535;DHT22;34323;52.022;5.686;2023-05-29T05:10:03;15.80;99.90
48535;DHT22;34323;52.022;5.686;2023-05-29T05:12:29;15.90;99.90
48535;DHT22;34323;52.022;5.686;2023-05-29T05:14:55;15.90;99.90
48535;DHT22;34323;52.022;5.686;2023-05-29T05:17:20;15.90;99.90
48535;DHT22;34323;52.022;5.686;2023-05-29T05:19:46;15.90;99.90
48535;DHT22;34323;52.022;5.686;2023-05-29T05:22:14;15.80;99.90
48535;DHT22;34323;52.022;5.686;2023-05-29T05:24:39;15.70;99.90
48535;DHT22;34323;52.022;5.686;2023-05-29T05:27:05;15.50;99.90
48535;DHT22;34323;52.022;5.686;2023-05-29T05:29:30;15.50;99.90
48535;DHT22;34323;52.022;5.686;2023-05-29T05:31:56;15.50;99.90
48535;DHT22;34323;52.022;5.686;2023-05-29T05:34:21;15.60;99.90
48535;DHT22;34323;52.022;5.686;2023-05-29T05:36:47;15.70;99.90
48535;DHT22;34323;52.022;5.686;2023-05-29T05:39:13;16.00;99.90
48535;DHT22;34323;52.022;5.686;2023-05-29T05:41:39;16.10;99.90
48535;DHT22;34323;52.022;5.686;2023-05-29T05:44:04;16.20;99.90
48535;DHT22;34323;52.022;5.686;2023-05-29T05:46:30;16.30;99.90
48535;DHT22;34323;52.022;5.686;2023-05-29T05:48:55;16.20;99.90
48535;DHT22;34323;52.022;5.686;2023-05-29T05:51:23;16.20;99.90
48535;DHT22;34323;52.022;5.686;2023-05-29T05:53:48;16.20;99.90
48535;DHT22;34323;52.022;5.686;2023-05-29T05:56:14;16.20;99.90
48535;DHT22;34323;52.022;5.686;2023-05-29T05:58:39;16.20;99.90
48535;DHT22;34323;52.022;5.686;2023-05-29T06:01:07;16.10;99.90
48535;DHT22;34323;52.022;5.686;2023-05-29T06:03:33;16.10;99.90
48535;DHT22;34323;52.022;5.686;2023-05-29T06:05:59;16.10;99.90
48535;DHT22;34323;52.022;5.686;2023-05-29T06:08:25;16.20;99.90
48535;DHT22;34323;52.022;5.686;2023-05-29T06:10:51;16.30;99.90
48535;DHT22;34323;52.022;5.686;2023-05-29T06:13:17;16.30;99.90
48535;DHT22;34323;52.022;5.686;2023-05-29T06:15:43;16.40;99.90
48535;DHT22;34323;52.022;5.686;2023-05-29T06:18:08;16.40;99.90
48535;DHT22;34323;52.022;5.686;2023-05-29T06:20:34;16.20;99.90
48535;DHT22;34323;52.022;5.686;2023-05-29T06:22:59;16.20;99.90
48535;DHT22;34323;52.022;5.686;2023-05-29T06:25:25;16.20;99.90
48535;DHT22;34323;52.022;5.686;2023-05-29T06:27:59;16.10;99.90
48535;DHT22;34323;52.022;5.686;2023-05-29T06:30:24;16.00;99.90
48535;DHT22;34323;52.022;5.686;2023-05-29T06:32:50;15.90;99.90
48535;DHT22;34323;52.022;5.686;2023-05-29T06:35:16;15.90;99.90
48535;DHT22;34323;52.022;5.686;2023-05-29T06:37:41;15.90;99.90
48535;DHT22;34323;52.022;5.686;2023-05-29T06:40:07;16.20;99.90
48535;DHT22;34323;52.022;5.686;2023-05-29T06:42:33;16.50;99.90
48535;DHT22;34323;52.022;5.686;2023-05-29T06:44:58;16.50;99.90
48535;DHT22;34323;52.022;5.686;2023-05-29T06:47:24;16.50;99.90
48535;DHT22;34323;52.022;5.686;2023-05-29T06:49:49;16.60;99.90
48535;DHT22;34323;52.022;5.686;2023-05-29T06:52:15;16.70;99.90
48535;DHT22;34323;52.022;5.686;2023-05-29T06:54:40;16.60;99.90
48535;DHT22;34323;52.022;5.686;2023-05-29T06:57:07;16.30;99.90
48535;DHT22;34323;52.022;5.686;2023-05-29T06:59:32;16.20;99.90
48535;DHT22;34323;52.022;5.686;2023-05-29T07:01:58;16.40;99.90
48535;DHT22;34323;52.022;5.686;2023-05-29T07:04:23;16.70;99.90
48535;DHT22;34323;52.022;5.686;2023-05-29T07:06:50;16.90;99.90
48535;DHT22;34323;52.022;5.686;2023-05-29T07:09:16;17.00;99.90
48535;DHT22;34323;52.022;5.686;2023-05-29T07:11:42;16.70;99.90
48535;DHT22;34323;52.022;5.686;2023-05-29T07:14:07;16.80;99.90
48535;DHT22;34323;52.022;5.686;2023-05-29T07:16:33;17.00;99.90
48535;DHT22;34323;52.022;5.686;2023-05-29T07:18:59;16.90;99.90
48535;DHT22;34323;52.022;5.686;2023-05-29T07:21:24;16.80;99.90
48535;DHT22;34323;52.022;5.686;2023-05-29T07:23:50;16.70;99.90
48535;DHT22;34323;52.022;5.686;2023-05-29T07:26:15;16.80;99.90
48535;DHT22;34323;52.022;5.686;2023-05-29T07:28:41;17.00;99.90
48535;DHT22;34323;52.022;5.686;2023-05-29T07:31:06;17.00;99.90
48535;DHT22;34323;52.022;5.686;2023-05-29T07:33:32;17.20;99.90
48535;DHT22;34323;52.022;5.686;2023-05-29T07:35:58;17.50;99.90
48535;DHT22;34323;52.022;5.686;2023-05-29T07:38:23;17.60;99.90
48535;DHT22;34323;52.022;5.686;2023-05-29T07:40:49;17.90;99.90
48535;DHT22;34323;52.022;5.686;2023-05-29T07:43:14;18.00;99.90
48535;DHT22;34323;52.022;5.686;2023-05-29T07:45:40;18.00;99.90
48535;DHT22;34323;52.022;5.686;2023-05-29T07:48:05;18.00;99.90
48535;DHT22;34323;52.022;5.686;2023-05-29T07:50:31;18.10;99.90
48535;DHT22;34323;52.022;5.686;2023-05-29T07:52:56;18.20;99.90
48535;DHT22;34323;52.022;5.686;2023-05-29T07:55:22;18.10;99.90
48535;DHT22;34323;52.022;5.686;2023-05-29T07:57:48;18.20;99.90
48535;DHT22;34323;52.022;5.686;2023-05-29T08:00:14;18.20;99.90
48535;DHT22;34323;52.022;5.686;2023-05-29T08:02:40;18.20;99.90
48535;DHT22;34323;52.022;5.686;2023-05-29T08:05:08;18.50;99.90
48535;DHT22;34323;52.022;5.686;2023-05-29T08:07:34;18.20;99.90
48535;DHT22;34323;52.022;5.686;2023-05-29T08:10:00;17.90;99.90
48535;DHT22;34323;52.022;5.686;2023-05-29T08:12:25;17.90;99.90
48535;DHT22;34323;52.022;5.686;2023-05-29T08:14:51;18.00;99.90
48535;DHT22;34323;52.022;5.686;2023-05-29T08:17:17;18.10;99.90
48535;DHT22;34323;52.022;5.686;2023-05-29T08:19:42;18.30;99.90
48535;DHT22;34323;52.022;5.686;2023-05-29T08:22:12;18.70;99.90
48535;DHT22;34323;52.022;5.686;2023-05-29T08:24:38;19.00;99.90
48535;DHT22;34323;52.022;5.686;2023-05-29T08:27:04;19.20;99.90
48535;DHT22;34323;52.022;5.686;2023-05-29T08:29:29;19.10;99.90
48535;DHT22;34323;52.022;5.686;2023-05-29T08:31:55;18.90;99.90
48535;DHT22;34323;52.022;5.686;2023-05-29T08:34:20;19.10;99.90
48535;DHT22;34323;52.022;5.686;2023-05-29T08:36:46;19.50;99.90
48535;DHT22;34323;52.022;5.686;2023-05-29T08:39:11;19.80;99.90
48535;DHT22;34323;52.022;5.686;2023-05-29T08:41:59;19.70;99.90
48535;DHT22;34323;52.022;5.686;2023-05-29T08:44:29;19.90;99.90
48535;DHT22;34323;52.022;5.686;2023-05-29T08:46:56;20.30;99.90
48535;DHT22;34323;52.022;5.686;2023-05-29T08:49:22;20.30;99.90
48535;DHT22;34323;52.022;5.686;2023-05-29T08:51:49;20.10;99.90
48535;DHT22;34323;52.022;5.686;2023-05-29T08:54:20;20.10;99.90
48535;DHT22;34323;52.022;5.686;2023-05-29T08:56:45;20.20;99.90
48535;DHT22;34323;52.022;5.686;2023-05-29T08:59:12;20.40;99.90
48535;DHT22;34323;52.022;5.686;2023-05-29T09:01:38;20.60;99.90
48535;DHT22;34323;52.022;5.686;2023-05-29T09:04:04;20.70;99.90
48535;DHT22;34323;52.022;5.686;2023-05-29T09:06:30;20.80;99.90
48535;DHT22;34323;52.022;5.686;2023-05-29T09:08:56;20.70;99.90
48535;DHT22;34323;52.022;5.686;2023-05-29T09:11:23;20.80;99.90
48535;DHT22;34323;52.022;5.686;2023-05-29T09:13:49;20.90;99.90
48535;DHT22;34323;52.022;5.686;2023-05-29T09:16:16;21.10;99.90
48535;DHT22;34323;52.022;5.686;2023-05-29T09:18:41;21.30;99.90
48535;DHT22;34323;52.022;5.686;2023-05-29T09:21:17;21.10;99.90
48535;DHT22;34323;52.022;5.686;2023-05-29T09:23:52;21.30;99.90
48535;DHT22;34323;52.022;5.686;2023-05-29T09:26:17;21.60;99.90
48535;DHT22;34323;52.022;5.686;2023-05-29T09:28:45;21.80;99.90
48535;DHT22;34323;52.022;5.686;2023-05-29T09:31:14;22.00;99.90
48535;DHT22;34323;52.022;5.686;2023-05-29T09:33:49;22.10;99.90
48535;DHT22;34323;52.022;5.686;2023-05-29T09:36:24;22.20;99.70
48535;DHT22;34323;52.022;5.686;2023-05-29T09:38:51;22.30;99.80
48535;DHT22;34323;52.022;5.686;2023-05-29T09:41:23;22.70;99.50
48535;DHT22;34323;52.022;5.686;2023-05-29T09:43:52;22.90;99.90
48535;DHT22;34323;52.022;5.686;2023-05-29T09:46:19;22.70;99.20
48535;DHT22;34323;52.022;5.686;2023-05-29T09:48:45;22.10;98.90
48535;DHT22;34323;52.022;5.686;2023-05-29T09:51:21;22.00;99.50
48535;DHT22;34323;52.022;5.686;2023-05-29T09:53:48;22.20;99.10
48535;DHT22;34323;52.022;5.686;2023-05-29T09:56:16;22.50;98.70
48535;DHT22;34323;52.022;5.686;2023-05-29T09:58:42;22.40;99.30
48535;DHT22;34323;52.022;5.686;2023-05-29T10:01:13;22.20;99.20
48535;DHT22;34323;52.022;5.686;2023-05-29T10:03:41;22.30;99.00
48535;DHT22;34323;52.022;5.686;2023-05-29T10:06:09;22.50;98.90
48535;DHT22;34323;52.022;5.686;2023-05-29T10:08:37;22.60;99.70
48535;DHT22;34323;52.022;5.686;2023-05-29T10:11:05;22.60;98.90
48535;DHT22;34323;52.022;5.686;2023-05-29T10:13:38;22.80;98.70
48535;DHT22;34323;52.022;5.686;2023-05-29T10:16:07;22.90;98.50
48535;DHT22;34323;52.022;5.686;2023-05-29T10:18:44;22.80;98.10
48535;DHT22;34323;52.022;5.686;2023-05-29T10:21:12;23.10;98.40
48535;DHT22;34323;52.022;5.686;2023-05-29T10:23:38;22.90;98.70
48535;DHT22;34323;52.022;5.686;2023-05-29T10:26:26;23.20;98.00
48535;DHT22;34323;52.022;5.686;2023-05-29T10:31:43;23.70;98.10
48535;DHT22;34323;52.022;5.686;2023-05-29T10:37:04;23.60;97.00
48535;DHT22;34323;52.022;5.686;2023-05-29T10:39:31;23.30;98.10
48535;DHT22;34323;52.022;5.686;2023-05-29T10:41:57;23.40;97.80
48535;DHT22;34323;52.022;5.686;2023-05-29T10:49:23;23.90;97.60
48535;DHT22;34323;52.022;5.686;2023-05-29T10:51:49;24.20;98.20
48535;DHT22;34323;52.022;5.686;2023-05-29T10:54:15;24.20;97.90
48535;DHT22;34323;52.022;5.686;2023-05-29T10:56:44;24.40;98.00
48535;DHT22;34323;52.022;5.686;2023-05-29T10:59:17;24.30;98.40
48535;DHT22;34323;52.022;5.686;2023-05-29T11:01:43;24.30;96.60
48535;DHT22;34323;52.022;5.686;2023-05-29T11:06:47;24.10;97.10
48535;DHT22;34323;52.022;5.686;2023-05-29T11:12:35;24.00;95.90
48535;DHT22;34323;52.022;5.686;2023-05-29T11:15:20;24.30;95.60
48535;DHT22;34323;52.022;5.686;2023-05-29T11:17:46;24.20;96.80
48535;DHT22;34323;52.022;5.686;2023-05-29T11:25:24;24.20;96.40
48535;DHT22;34323;52.022;5.686;2023-05-29T11:27:50;24.60;96.00
48535;DHT22;34323;52.022;5.686;2023-05-29T11:30:19;24.80;95.90
48535;DHT22;34323;52.022;5.686;2023-05-29T11:32:46;24.60;96.30
48535;DHT22;34323;52.022;5.686;2023-05-29T11:35:19;24.60;95.90
48535;DHT22;34323;52.022;5.686;2023-05-29T11:37:47;24.50;96.20
48535;DHT22;34323;52.022;5.686;2023-05-29T11:40:13;24.30;96.20
48535;DHT22;34323;52.022;5.686;2023-05-29T11:42:46;24.30;96.40
48535;DHT22;34323;52.022;5.686;2023-05-29T11:45:20;24.40;96.50
48535;DHT22;34323;52.022;5.686;2023-05-29T11:47:59;24.60;95.70
48535;DHT22;34323;52.022;5.686;2023-05-29T11:50:32;24.80;95.10
48535;DHT22;34323;52.022;5.686;2023-05-29T11:52:59;25.00;95.30
48535;DHT22;34323;52.022;5.686;2023-05-29T11:55:26;24.70;94.70
48535;DHT22;34323;52.022;5.686;2023-05-29T11:58:00;24.90;94.90
48535;DHT22;34323;52.022;5.686;2023-05-29T12:00:34;25.20;95.10
48535;DHT22;34323;52.022;5.686;2023-05-29T12:03:00;24.80;94.70
48535;DHT22;34323;52.022;5.686;2023-05-29T12:05:32;24.70;95.10
48535;DHT22;34323;52.022;5.686;2023-05-29T12:07:58;24.90;95.20
48535;DHT22;34323;52.022;5.686;2023-05-29T12:10:28;25.10;95.10
48535;DHT22;34323;52.022;5.686;2023-05-29T12:12:55;24.60;97.00
48535;DHT22;34323;52.022;5.686;2023-05-29T12:15:22;24.90;95.90
48535;DHT22;34323;52.022;5.686;2023-05-29T12:17:49;24.90;94.70
48535;DHT22;34323;52.022;5.686;2023-05-29T12:20:16;24.70;94.40
48535;DHT22;34323;52.022;5.686;2023-05-29T12:22:43;24.70;95.50
48535;DHT22;34323;52.022;5.686;2023-05-29T12:25:11;25.00;94.60
48535;DHT22;34323;52.022;5.686;2023-05-29T12:27:42;25.20;94.70
48535;DHT22;34323;52.022;5.686;2023-05-29T12:30:09;25.10;94.30
48535;DHT22;34323;52.022;5.686;2023-05-29T12:32:38;25.10;93.80
48535;DHT22;34323;52.022;5.686;2023-05-29T12:37:35;25.50;94.10
48535;DHT22;34323;52.022;5.686;2023-05-29T12:40:18;25.40;94.00
48535;DHT22;34323;52.022;5.686;2023-05-29T12:42:46;25.20;94.30
48535;DHT22;34323;52.022;5.686;2023-05-29T12:45:11;25.20;94.60
48535;DHT22;34323;52.022;5.686;2023-05-29T12:47:37;25.30;94.20
48535;DHT22;34323;52.022;5.686;2023-05-29T12:50:22;25.10;94.50
48535;DHT22;34323;52.022;5.686;2023-05-29T12:53:07;25.30;94.00
48535;DHT22;34323;52.022;5.686;2023-05-29T12:55:34;25.40;94.20
48535;DHT22;34323;52.022;5.686;2023-05-29T12:58:08;25.40;94.70
48535;DHT22;34323;52.022;5.686;2023-05-29T13:00:35;25.50;94.70
48535;DHT22;34323;52.022;5.686;2023-05-29T13:03:01;25.70;94.70
48535;DHT22;34323;52.022;5.686;2023-05-29T13:05:27;26.10;94.60
48535;DHT22;34323;52.022;5.686;2023-05-29T13:07:53;26.60;94.40
48535;DHT22;34323;52.022;5.686;2023-05-29T13:10:19;26.80;93.60
48535;DHT22;34323;52.022;5.686;2023-05-29T13:12:46;27.00;94.00
48535;DHT22;34323;52.022;5.686;2023-05-29T13:15:13;27.10;92.60
48535;DHT22;34323;52.022;5.686;2023-05-29T13:17:39;27.00;93.30
48535;DHT22;34323;52.022;5.686;2023-05-29T13:20:11;26.70;92.20
48535;DHT22;34323;52.022;5.686;2023-05-29T13:22:38;26.60;92.50
48535;DHT22;34323;52.022;5.686;2023-05-29T13:25:04;27.00;92.20
48535;DHT22;34323;52.022;5.686;2023-05-29T13:27:33;27.10;92.50
48535;DHT22;34323;52.022;5.686;2023-05-29T13:29:59;27.30;91.40
48535;DHT22;34323;52.022;5.686;2023-05-29T13:32:25;27.70;91.90
48535;DHT22;34323;52.022;5.686;2023-05-29T13:34:50;27.50;91.60
48535;DHT22;34323;52.022;5.686;2023-05-29T13:37:16;27.10;91.50
48535;DHT22;34323;52.022;5.686;2023-05-29T13:39:41;27.30;92.50
48535;DHT22;34323;52.022;5.686;2023-05-29T13:42:08;27.10;92.80
48535;DHT22;34323;52.022;5.686;2023-05-29T13:44:34;26.60;91.90
48535;DHT22;34323;52.022;5.686;2023-05-29T13:46:59;26.80;93.40
48535;DHT22;34323;52.022;5.686;2023-05-29T13:49:26;26.90;92.80
48535;DHT22;34323;52.022;5.686;2023-05-29T13:51:52;26.90;93.30
48535;DHT22;34323;52.022;5.686;2023-05-29T13:54:17;27.10;93.70
48535;DHT22;34323;52.022;5.686;2023-05-29T13:56:43;27.30;93.40
48535;DHT22;34323;52.022;5.686;2023-05-29T13:59:09;28.30;93.40
48535;DHT22;34323;52.022;5.686;2023-05-29T14:01:35;29.10;93.30
48535;DHT22;34323;52.022;5.686;2023-05-29T14:04:00;30.00;92.90
48535;DHT22;34323;52.022;5.686;2023-05-29T14:06:26;30.70;92.00
48535;DHT22;34323;52.022;5.686;2023-05-29T14:08:52;31.50;92.20
48535;DHT22;34323;52.022;5.686;2023-05-29T14:11:18;32.20;92.10
48535;DHT22;34323;52.022;5.686;2023-05-29T14:13:43;32.10;92.60
48535;DHT22;34323;52.022;5.686;2023-05-29T14:16:09;32.10;92.40
48535;DHT22;34323;52.022;5.686;2023-05-29T14:18:35;32.40;92.20
48535;DHT22;34323;52.022;5.686;2023-05-29T14:21:00;32.50;91.60
48535;DHT22;34323;52.022;5.686;2023-05-29T14:23:26;33.00;91.10
48535;DHT22;34323;52.022;5.686;2023-05-29T14:25:51;33.30;91.50
48535;DHT22;34323;52.022;5.686;2023-05-29T14:28:17;33.60;91.60
48535;DHT22;34323;52.022;5.686;2023-05-29T14:30:43;33.60;90.90
48535;DHT22;34323;52.022;5.686;2023-05-29T14:33:09;33.60;91.40
48535;DHT22;34323;52.022;5.686;2023-05-29T14:35:34;32.70;91.20
48535;DHT22;34323;52.022;5.686;2023-05-29T14:38:00;32.80;90.30
48535;DHT22;34323;52.022;5.686;2023-05-29T14:40:26;32.30;91.70
48535;DHT22;34323;52.022;5.686;2023-05-29T14:42:51;31.50;90.30
48535;DHT22;34323;52.022;5.686;2023-05-29T14:45:17;30.90;90.10
48535;DHT22;34323;52.022;5.686;2023-05-29T14:47:43;30.60;90.90
48535;DHT22;34323;52.022;5.686;2023-05-29T14:50:08;30.70;91.30
48535;DHT22;34323;52.022;5.686;2023-05-29T14:52:34;31.10;90.60
48535;DHT22;34323;52.022;5.686;2023-05-29T14:55:04;30.90;90.80
48535;DHT22;34323;52.022;5.686;2023-05-29T14:57:31;31.20;90.50
48535;DHT22;34323;52.022;5.686;2023-05-29T14:59:59;31.10;91.20
48535;DHT22;34323;52.022;5.686;2023-05-29T15:02:24;31.30;90.40
48535;DHT22;34323;52.022;5.686;2023-05-29T15:04:50;31.40;91.30
48535;DHT22;34323;52.022;5.686;2023-05-29T15:07:16;30.80;90.70
48535;DHT22;34323;52.022;5.686;2023-05-29T15:09:42;30.80;90.00
48535;DHT22;34323;52.022;5.686;2023-05-29T15:12:08;30.60;90.40
48535;DHT22;34323;52.022;5.686;2023-05-29T15:14:34;30.80;91.10
48535;DHT22;34323;52.022;5.686;2023-05-29T15:17:00;30.90;90.60
48535;DHT22;34323;52.022;5.686;2023-05-29T15:19:26;30.80;91.00
48535;DHT22;34323;52.022;5.686;2023-05-29T15:21:52;30.30;90.90
48535;DHT22;34323;52.022;5.686;2023-05-29T15:24:17;29.70;90.80
48535;DHT22;34323;52.022;5.686;2023-05-29T15:26:43;29.20;91.20
48535;DHT22;34323;52.022;5.686;2023-05-29T15:29:09;29.00;91.00
48535;DHT22;34323;52.022;5.686;2023-05-29T15:31:35;28.70;91.30
48535;DHT22;34323;52.022;5.686;2023-05-29T15:34:01;28.30;91.00
48535;DHT22;34323;52.022;5.686;2023-05-29T15:36:27;28.30;90.90
48535;DHT22;34323;52.022;5.686;2023-05-29T15:38:54;28.00;91.30
48535;DHT22;34323;52.022;5.686;2023-05-29T15:41:19;28.10;91.30
48535;DHT22;34323;52.022;5.686;2023-05-29T15:43:45;27.70;91.50
48535;DHT22;34323;52.022;5.686;2023-05-29T15:46:11;27.60;91.50
48535;DHT22;34323;52.022;5.686;2023-05-29T15:48:36;27.80;91.40
48535;DHT22;34323;52.022;5.686;2023-05-29T15:51:02;27.30;91.90
48535;DHT22;34323;52.022;5.686;2023-05-29T15:53:27;27.00;91.20
48535;DHT22;34323;52.022;5.686;2023-05-29T15:55:53;27.20;91.30
48535;DHT22;34323;52.022;5.686;2023-05-29T15:58:19;26.80;91.70